createdAt,value
2022-08-07T00:00:14.787Z,58.73
2022-08-07T00:02:36.255Z,58.81
2022-08-07T00:04:45.280Z,58.24
2022-08-07T00:06:51.601Z,58.62
2022-08-07T00:08:54.327Z,59.14
2022-08-07T00:10:58.375Z,59.30
2022-08-07T00:13:09.741Z,59.47
2022-08-07T00:15:25.853Z,60.37
2022-08-07T00:17:40.560Z,60.88
2022-08-07T00:20:00.380Z,61.22
2022-08-07T00:22:05.187Z,62.13
2022-08-07T00:24:07.884Z,61.01
2022-08-07T00:26:18.792Z,61.07
2022-08-07T00:28:33.900Z,61.34
2022-08-07T00:30:36.453Z,61.03
2022-08-07T00:32:38.470Z,60.85
2022-08-07T00:34:41.415Z,62.30
2022-08-07T00:36:43.959Z,61.11
2022-08-07T00:38:45.953Z,60.96
2022-08-07T00:40:48.007Z,61.19
2022-08-07T00:42:50.280Z,61.84
2022-08-07T00:44:54.715Z,61.37
2022-08-07T00:46:56.714Z,62.69
2022-08-07T00:49:01.893Z,63.87
2022-08-07T00:51:04.322Z,62.50
2022-08-07T00:53:06.478Z,61.89
2022-08-07T00:55:11.408Z,62.25
2022-08-07T00:57:19.560Z,62.01
2022-08-07T00:59:35.304Z,62.17
2022-08-07T01:01:41.571Z,62.25
2022-08-07T01:03:56.981Z,62.66
2022-08-07T01:06:03.201Z,63.45
2022-08-07T01:08:06.117Z,64.11
2022-08-07T01:10:12.615Z,64.31
2022-08-07T01:12:29.290Z,65.37
2022-08-07T01:14:33.160Z,64.78
2022-08-07T01:16:43.129Z,64.92
2022-08-07T01:18:48.906Z,64.27
2022-08-07T01:21:17.509Z,65.86
2022-08-07T01:23:34.734Z,63.91
2022-08-07T01:25:55.845Z,63.53
2022-08-07T01:27:58.483Z,64.44
2022-08-07T01:30:01.849Z,64.51
2022-08-07T01:32:05.522Z,64.95
2022-08-07T01:34:14.434Z,65.21
2022-08-07T01:36:16.786Z,66.42
2022-08-07T01:38:25.679Z,66.78
2022-08-07T01:40:28.064Z,65.79
2022-08-07T01:42:37.586Z,67.75
2022-08-07T01:44:42.489Z,66.06
2022-08-07T01:46:51.394Z,66.72
2022-08-07T01:48:53.404Z,67.18
2022-08-07T01:51:08.253Z,66.82
2022-08-07T01:54:09.478Z,66.82
2022-08-07T01:55:56.590Z,67.68
2022-08-07T01:58:06.096Z,67.35
2022-08-07T02:00:28.654Z,66.70
2022-08-07T02:03:12.286Z,67.12
2022-08-07T02:05:16.147Z,67.94
2022-08-07T02:07:50.153Z,68.16
2022-08-07T02:09:58.606Z,68.20
2022-08-07T02:12:17.627Z,67.40
2022-08-07T02:14:40.595Z,67.27
2022-08-07T02:16:42.001Z,66.83
2022-08-07T02:18:45.298Z,67.14
2022-08-07T02:20:52.103Z,67.25
2022-08-07T02:23:03.637Z,67.01
2022-08-07T02:25:13.866Z,66.98
2022-08-07T02:27:21.355Z,66.43
2022-08-07T02:29:24.798Z,66.36
2022-08-07T02:31:29.427Z,68.31
2022-08-07T02:33:33.015Z,67.66
2022-08-07T02:36:30.176Z,67.86
2022-08-07T02:38:16.440Z,67.29
2022-08-07T02:40:35.116Z,68.80
2022-08-07T02:42:37.534Z,67.80
2022-08-07T02:44:42.262Z,68.79
2022-08-07T02:46:52.692Z,69.16
2022-08-07T02:48:55.382Z,68.35
2022-08-07T02:50:57.508Z,68.32
2022-08-07T02:53:07.521Z,69.48
2022-08-07T02:55:28.413Z,70.38
2022-08-07T02:57:42.481Z,69.95
2022-08-07T02:59:55.258Z,69.84
2022-08-07T03:02:03.619Z,69.11
2022-08-07T03:04:07.707Z,69.05
2022-08-07T03:06:16.507Z,70.20
2022-08-07T03:08:29.557Z,70.67
2022-08-07T03:10:32.108Z,71.39
2022-08-07T03:12:34.366Z,71.50
2022-08-07T03:14:36.826Z,72.66
2022-08-07T03:16:38.954Z,71.11
2022-08-07T03:18:44.148Z,72.00
2022-08-07T03:20:46.282Z,71.51
2022-08-07T03:22:50.176Z,70.81
2022-08-07T03:24:52.526Z,71.13
2022-08-07T03:26:58.806Z,71.17
2022-08-07T03:29:02.464Z,71.89
2022-08-07T06:06:09.394Z,64.28
2022-08-07T06:08:29.444Z,63.63
2022-08-07T06:10:33.003Z,63.25
2022-08-07T06:12:35.008Z,62.93
2022-08-07T06:14:37.022Z,62.75
2022-08-07T06:16:39.063Z,62.96
2022-08-07T06:18:41.251Z,62.78
2022-08-07T06:20:50.586Z,62.50
2022-08-07T06:23:25.105Z,62.39
2022-08-07T06:25:34.760Z,62.20
2022-08-07T06:27:59.580Z,61.89
2022-08-07T06:30:01.047Z,62.19
2022-08-07T06:32:03.220Z,62.18
2022-08-07T06:34:06.765Z,62.45
2022-08-07T06:36:13.833Z,61.96
2022-08-07T06:38:20.417Z,61.53
2022-08-07T06:40:22.856Z,61.32
2022-08-07T06:42:37.479Z,61.71
2022-08-07T06:44:39.909Z,61.67
2022-08-07T06:46:41.945Z,61.90
2022-08-07T06:48:45.997Z,61.90
2022-08-07T06:50:48.123Z,61.82
2022-08-07T06:52:53.703Z,61.81
2022-08-07T06:55:32.990Z,61.44
2022-08-07T06:57:19.887Z,61.52
2022-08-07T07:00:13.923Z,61.54
2022-08-07T07:02:06.206Z,61.83
2022-08-07T07:04:28.636Z,61.40
2022-08-07T07:06:32.165Z,60.79
2022-08-07T07:08:47.032Z,60.26
2022-08-07T07:10:56.700Z,60.03
2022-08-07T07:13:14.704Z,59.89
2022-08-07T07:15:35.853Z,59.42
2022-08-07T07:17:56.755Z,60.34
2022-08-07T07:20:01.003Z,59.91
2022-08-07T07:22:33.943Z,59.99
2022-08-07T07:24:27.326Z,59.86
2022-08-07T07:26:34.801Z,59.89
2022-08-07T07:29:56.492Z,59.70
2022-08-07T07:31:23.794Z,59.64
2022-08-07T07:33:26.653Z,59.49
2022-08-07T07:35:33.533Z,59.42
2022-08-07T07:37:49.793Z,59.08
2022-08-07T07:39:56.468Z,58.77
2022-08-07T07:42:13.668Z,58.62
2022-08-07T07:44:25.882Z,57.41
2022-08-07T07:46:53.589Z,56.92
2022-08-07T07:49:00.214Z,56.60
2022-08-07T07:51:11.061Z,56.13
2022-08-07T07:53:23.093Z,55.52
2022-08-07T07:55:27.699Z,55.90
2022-08-07T07:57:51.455Z,55.42
2022-08-07T07:59:55.935Z,55.09
2022-08-07T08:02:02.855Z,55.04
2022-08-07T08:04:10.254Z,54.77
2022-08-07T08:06:13.809Z,54.77
2022-08-07T08:08:35.185Z,51.54
2022-08-07T08:10:39.033Z,52.72
2022-08-07T08:12:52.261Z,50.78
2022-08-07T08:14:54.942Z,53.14
2022-08-07T08:16:57.839Z,51.71
2022-08-07T08:20:16.245Z,51.07
2022-08-07T08:22:07.854Z,51.85
2022-08-07T08:24:36.075Z,52.00
2022-08-07T08:26:58.071Z,51.18
2022-08-07T08:29:02.254Z,51.11
2022-08-07T08:31:06.563Z,51.14
2022-08-07T08:33:15.053Z,50.96
2022-08-07T08:35:22.059Z,48.22
2022-08-07T08:37:59.254Z,49.13
2022-08-07T08:39:55.211Z,46.72
2022-08-07T08:42:09.262Z,45.62
2022-08-07T08:44:44.684Z,45.86
2022-08-07T08:47:09.897Z,45.82
2022-08-07T08:50:02.565Z,45.02
2022-08-07T08:52:32.218Z,43.86
2022-08-07T08:55:07.788Z,43.72
2022-08-07T08:57:25.562Z,44.30
2022-08-07T08:59:53.613Z,44.30
2022-08-07T09:02:34.817Z,43.06
2022-08-07T09:05:03.988Z,44.78
2022-08-07T09:07:45.907Z,44.40
2022-08-07T09:10:10.662Z,43.79
2022-08-07T09:12:41.390Z,42.87
2022-08-07T09:16:25.455Z,42.36
2022-08-07T09:18:16.871Z,42.61
2022-08-07T09:21:02.683Z,42.98
2022-08-07T09:24:30.449Z,43.08
2022-08-07T09:25:53.428Z,43.58
2022-08-07T09:30:01.528Z,41.80
2022-08-07T09:31:03.619Z,40.62
2022-08-07T09:33:52.701Z,41.11
2022-08-07T09:36:06.347Z,39.16
2022-08-07T09:38:14.167Z,39.61
2022-08-07T09:40:30.650Z,38.97
2022-08-07T09:42:51.459Z,38.70
2022-08-07T09:47:25.584Z,38.68
2022-08-07T09:48:03.997Z,38.22
2022-08-07T09:50:26.592Z,38.46
2022-08-07T09:52:56.232Z,38.17
2022-08-07T09:56:03.326Z,38.77
2022-08-07T09:58:42.551Z,39.87
2022-08-07T10:01:51.131Z,39.51
2022-08-07T10:04:33.022Z,38.46
2022-08-07T10:06:59.890Z,38.32
2022-08-07T10:09:42.768Z,38.23
2022-08-07T10:12:21.937Z,38.29
2022-08-07T10:14:40.312Z,37.29
2022-08-07T10:17:20.893Z,36.59
2022-08-07T10:19:49.421Z,35.80
2022-08-07T10:23:01.447Z,35.91
2022-08-07T10:25:43.731Z,36.29
2022-08-07T10:28:12.621Z,36.45
2022-08-07T10:30:59.427Z,35.97
2022-08-07T10:34:05.785Z,36.59
2022-08-07T10:36:29.673Z,36.83
2022-08-07T10:39:08.475Z,37.45
2022-08-07T10:41:52.368Z,37.78
2022-08-07T10:44:33.722Z,38.03
2022-08-07T10:46:50.704Z,37.94
2022-08-07T10:49:14.814Z,37.88
2022-08-07T10:51:39.583Z,38.40
2022-08-07T10:54:19.708Z,38.92
2022-08-07T10:56:54.983Z,38.98
2022-08-07T10:59:30.394Z,39.17
2022-08-07T11:01:51.526Z,39.32
2022-08-07T11:05:10.138Z,39.39
2022-08-07T11:07:59.064Z,39.61
2022-08-07T11:10:07.341Z,40.33
2022-08-07T11:13:02.117Z,39.86
2022-08-07T11:15:18.089Z,39.84
2022-08-07T11:17:45.827Z,39.45
2022-08-07T11:19:57.927Z,39.17
2022-08-07T11:22:19.181Z,39.07
2022-08-07T11:24:56.787Z,38.88
2022-08-07T11:27:17.735Z,38.81
2022-08-07T11:29:49.120Z,38.32
2022-08-07T11:32:40.684Z,37.98
2022-08-07T11:34:57.384Z,37.39
2022-08-07T11:37:57.262Z,37.86
2022-08-07T11:40:19.240Z,37.65
2022-08-07T11:42:52.672Z,37.35
2022-08-07T11:45:57.800Z,36.26
2022-08-07T11:49:27.454Z,35.77
2022-08-07T11:51:52.896Z,35.43
2022-08-07T11:54:29.661Z,34.95
2022-08-07T11:57:00.709Z,34.78
2022-08-07T12:00:11.499Z,34.85
2022-08-07T12:02:31.988Z,34.08
2022-08-07T12:04:59.523Z,33.93
2022-08-07T12:07:18.972Z,34.13
2022-08-07T12:09:42.449Z,33.82
2022-08-07T12:12:10.248Z,32.81
2022-08-07T12:14:22.295Z,32.42
2022-08-07T12:16:36.736Z,32.54
2022-08-07T12:18:50.730Z,32.12
2022-08-07T12:21:55.758Z,31.10
2022-08-07T12:24:37.497Z,30.48
2022-08-07T12:26:40.644Z,31.42
2022-08-07T12:28:59.289Z,29.36
2022-08-07T12:31:09.379Z,30.00
2022-08-07T12:33:28.148Z,30.02
2022-08-07T12:35:36.326Z,30.66
2022-08-07T12:38:09.721Z,30.99
2022-08-07T12:40:02.758Z,31.20
2022-08-07T12:42:04.906Z,29.81
2022-08-07T12:44:17.167Z,30.74
2022-08-07T12:47:01.034Z,29.24
2022-08-07T12:49:44.720Z,29.03
2022-08-07T12:52:18.108Z,28.63
2022-08-07T12:54:38.190Z,29.28
2022-08-07T12:56:51.207Z,29.35
2022-08-07T12:58:59.600Z,30.76
2022-08-07T13:01:04.486Z,30.57
2022-08-07T13:04:04.839Z,29.54
2022-08-07T13:06:21.617Z,30.01
2022-08-07T13:08:52.796Z,29.80
2022-08-07T13:12:03.512Z,29.73
2022-08-07T13:14:03.730Z,30.10
2022-08-07T13:17:02.516Z,29.39
2022-08-07T13:19:34.958Z,29.40
2022-08-07T13:22:02.072Z,28.82
2022-08-07T13:24:29.432Z,28.88
2022-08-07T13:27:20.576Z,28.96
2022-08-07T13:29:58.343Z,28.22
2022-08-07T13:32:15.288Z,28.32
2022-08-07T13:35:08.461Z,28.25
2022-08-07T13:37:26.036Z,27.78
2022-08-07T13:40:33.881Z,27.95
2022-08-07T13:42:02.129Z,27.75
2022-08-07T13:44:10.232Z,28.75
2022-08-07T13:46:25.521Z,27.83
2022-08-07T13:48:34.575Z,27.35
2022-08-07T13:50:45.073Z,27.16
2022-08-07T13:53:02.401Z,26.59
2022-08-07T13:55:25.875Z,25.43
2022-08-07T13:57:37.728Z,25.88
2022-08-07T13:59:45.543Z,25.73
2022-08-07T14:02:03.729Z,25.19
2022-08-07T14:04:12.247Z,25.63
2022-08-07T14:06:14.651Z,26.44
2022-08-07T14:08:16.810Z,26.82
2022-08-07T14:10:24.676Z,28.69
2022-08-07T14:13:05.377Z,28.86
2022-08-07T14:15:10.541Z,29.56
2022-08-07T14:18:12.486Z,29.64
2022-08-07T14:22:34.210Z,30.30
2022-08-07T14:22:40.944Z,29.80
2022-08-07T14:24:41.453Z,30.35
2022-08-07T14:30:02.941Z,30.14
2022-08-07T14:31:56.642Z,30.41
2022-08-07T14:34:00.061Z,30.13
2022-08-07T14:36:02.070Z,30.40
2022-08-07T14:38:05.884Z,30.07
2022-08-07T14:40:16.871Z,30.51
2022-08-07T14:42:32.435Z,30.15
2022-08-07T14:44:36.532Z,30.25
2022-08-07T14:46:51.731Z,30.41
2022-08-07T14:49:17.318Z,30.34
2022-08-07T14:54:30.382Z,30.20
2022-08-07T14:56:14.839Z,30.86
2022-08-07T14:58:34.811Z,30.34
2022-08-07T15:00:36.829Z,30.02
2022-08-07T15:02:39.198Z,29.74
2022-08-07T15:04:53.262Z,29.61
2022-08-07T15:06:55.499Z,30.01
2022-08-07T15:09:03.007Z,28.92
2022-08-07T15:11:53.317Z,29.94
2022-08-07T15:13:56.709Z,28.90
2022-08-07T15:18:41.606Z,28.77
2022-08-07T15:23:20.322Z,28.92
2022-08-07T15:25:36.451Z,28.91
2022-08-07T15:30:22.270Z,29.84
2022-08-07T15:32:38.937Z,29.93
2022-08-07T15:37:10.057Z,29.41
2022-08-07T15:39:12.702Z,29.02
2022-08-07T15:42:42.347Z,29.10
2022-08-07T15:43:57.123Z,29.30
2022-08-07T15:46:04.498Z,28.90
2022-08-07T15:48:32.095Z,28.27
2022-08-07T15:51:07.949Z,28.45
2022-08-07T15:53:05.485Z,28.71
2022-08-07T15:55:11.484Z,28.72
2022-08-07T15:57:28.055Z,28.53
2022-08-07T15:59:44.124Z,28.97
2022-08-07T16:02:02.441Z,28.78
2022-08-07T16:04:14.606Z,29.12
2022-08-07T16:06:24.667Z,29.11
2022-08-07T16:08:30.264Z,29.38
2022-08-07T16:10:37.476Z,29.53
2022-08-07T16:13:17.935Z,29.48
2022-08-07T16:16:42.879Z,29.39
2022-08-07T16:19:04.273Z,29.87
2022-08-07T16:22:05.681Z,30.22
2022-08-07T16:24:34.585Z,30.29
2022-08-07T16:27:05.434Z,30.73
2022-08-07T16:30:11.334Z,30.86
2022-08-07T16:32:33.043Z,31.06
2022-08-07T16:35:51.779Z,31.30
2022-08-07T16:38:07.431Z,31.41
2022-08-07T16:40:33.424Z,31.88
2022-08-07T16:42:45.672Z,31.86
2022-08-07T16:45:15.388Z,32.15
2022-08-07T16:47:56.420Z,32.20
2022-08-07T16:50:52.723Z,32.76
2022-08-07T16:53:48.260Z,33.01
2022-08-07T16:56:53.352Z,32.97
2022-08-07T16:59:24.716Z,32.89
2022-08-07T17:02:52.881Z,32.70
2022-08-07T17:04:58.591Z,33.25
2022-08-07T17:07:28.104Z,33.28
2022-08-07T17:10:05.057Z,33.57
2022-08-07T17:12:47.302Z,33.76
2022-08-07T17:15:15.997Z,33.46
2022-08-07T17:17:48.539Z,33.74
2022-08-07T17:20:02.907Z,33.37
2022-08-07T17:22:19.162Z,33.96
2022-08-07T17:25:15.536Z,34.73
2022-08-07T17:28:06.806Z,34.55
2022-08-07T17:30:15.475Z,34.47
2022-08-07T17:32:52.285Z,34.90
2022-08-07T17:35:50.481Z,34.67
2022-08-07T17:38:08.173Z,35.17
2022-08-07T17:40:08.049Z,35.93
2022-08-07T17:42:21.182Z,35.99
2022-08-07T17:44:33.839Z,35.24
2022-08-07T17:47:03.143Z,36.21
2022-08-07T17:49:24.172Z,35.83
2022-08-07T17:51:49.315Z,35.69
2022-08-07T17:54:39.873Z,36.05
2022-08-07T17:57:18.891Z,36.47
2022-08-07T17:59:44.757Z,36.42
2022-08-07T18:02:06.825Z,36.81
2022-08-07T18:04:35.224Z,37.03
2022-08-07T18:07:20.016Z,37.52
2022-08-07T18:10:04.914Z,36.69
2022-08-07T18:12:30.508Z,37.93
2022-08-07T18:14:47.879Z,37.95
2022-08-07T18:18:39.739Z,38.34
2022-08-07T18:21:06.522Z,37.94
2022-08-07T18:22:54.168Z,38.61
2022-08-07T18:25:19.048Z,38.11
2022-08-07T18:27:58.105Z,39.42
2022-08-07T18:30:31.280Z,39.65
2022-08-07T18:33:16.426Z,39.64
2022-08-07T18:35:25.516Z,39.44
2022-08-07T18:38:57.998Z,39.92
2022-08-07T18:41:17.056Z,39.98
2022-08-07T18:43:49.149Z,39.99
2022-08-07T18:46:22.061Z,40.09
2022-08-07T18:50:32.619Z,40.59
2022-08-07T18:52:34.873Z,41.06
2022-08-07T18:54:30.940Z,41.19
2022-08-07T18:57:23.350Z,40.86
2022-08-07T18:59:47.563Z,41.18
2022-08-07T19:02:34.197Z,41.10
2022-08-07T19:05:14.954Z,41.25
2022-08-07T19:07:34.489Z,40.96
2022-08-07T19:09:57.568Z,41.23
2022-08-07T19:12:17.906Z,41.93
2022-08-07T19:14:51.133Z,41.96
2022-08-07T19:17:07.685Z,40.66
2022-08-07T19:19:32.811Z,41.89
2022-08-07T19:21:58.486Z,42.20
2022-08-07T19:24:12.708Z,42.25
2022-08-07T19:27:16.683Z,42.27
2022-08-07T19:31:04.784Z,41.84
2022-08-07T19:32:08.024Z,41.92
2022-08-07T19:34:05.087Z,41.03
2022-08-07T19:36:13.895Z,41.93
2022-08-07T19:38:17.356Z,41.88
2022-08-07T19:40:31.739Z,41.48
2022-08-07T19:42:45.163Z,42.89
2022-08-07T19:44:47.816Z,42.09
2022-08-07T19:46:55.790Z,42.38
2022-08-07T19:49:06.242Z,42.76
2022-08-07T19:51:20.213Z,42.29
2022-08-07T19:54:32.022Z,42.46
2022-08-07T19:55:57.373Z,42.52
2022-08-07T19:58:13.855Z,42.94
2022-08-07T20:00:28.213Z,44.87
2022-08-07T20:02:51.849Z,45.33
2022-08-07T20:04:56.098Z,44.38
2022-08-07T20:06:58.360Z,43.84
2022-08-07T20:09:02.943Z,44.17
2022-08-07T20:11:15.170Z,45.06
2022-08-07T20:13:53.505Z,45.36
2022-08-07T20:15:57.931Z,44.21
2022-08-07T20:18:03.317Z,44.23
2022-08-07T20:20:07.190Z,44.75
2022-08-07T20:22:12.503Z,44.71
2022-08-07T20:24:31.592Z,45.71
2022-08-07T20:26:45.248Z,44.92
2022-08-07T20:28:48.243Z,45.70
2022-08-07T20:30:50.606Z,45.56
2022-08-07T20:32:54.094Z,45.74
2022-08-07T20:35:01.310Z,46.86
2022-08-07T20:37:09.929Z,47.25
2022-08-07T20:40:01.458Z,48.55
2022-08-07T20:41:42.676Z,47.73
2022-08-07T20:43:47.685Z,47.99
2022-08-07T20:46:28.667Z,48.79
2022-08-07T20:48:29.076Z,49.31
2022-08-07T20:50:32.654Z,50.69
2022-08-07T20:52:51.458Z,49.93
2022-08-07T20:54:55.464Z,49.34
2022-08-07T20:57:04.316Z,50.59
2022-08-07T20:59:06.574Z,50.05
2022-08-07T21:01:29.832Z,50.34
2022-08-07T21:04:18.789Z,53.02
2022-08-07T21:06:26.010Z,52.61
2022-08-07T21:08:46.690Z,54.14
2022-08-07T21:10:49.486Z,51.00
2022-08-07T21:12:51.495Z,55.16
2022-08-07T21:14:57.064Z,51.52
2022-08-07T21:18:00.741Z,53.28
2022-08-07T21:19:32.101Z,53.14
2022-08-07T21:21:57.219Z,52.54
2022-08-07T21:24:24.905Z,55.42
2022-08-07T21:26:30.702Z,54.37
2022-08-07T21:28:49.991Z,56.29
2022-08-07T21:31:08.482Z,55.44
2022-08-07T21:33:24.619Z,56.57
2022-08-07T21:36:04.948Z,57.37
2022-08-07T21:38:14.779Z,56.88
2022-08-07T21:40:36.028Z,58.05
2022-08-07T21:42:55.985Z,59.33
2022-08-07T21:46:09.580Z,59.68
2022-08-07T21:48:34.355Z,59.92
2022-08-07T21:50:54.241Z,59.56
2022-08-07T21:53:08.473Z,60.25
2022-08-07T21:55:27.805Z,59.33
2022-08-07T21:57:55.147Z,59.81
2022-08-07T22:00:23.050Z,60.25
2022-08-07T22:02:39.712Z,60.62
2022-08-07T22:04:53.520Z,60.50
2022-08-07T22:07:06.782Z,61.93
2022-08-07T22:09:12.795Z,59.61
2022-08-07T22:11:18.152Z,58.46
2022-08-07T22:13:24.705Z,58.48
2022-08-07T22:16:38.517Z,61.52
2022-08-07T22:19:29.724Z,61.33
2022-08-07T22:22:20.870Z,62.46
2022-08-07T22:24:37.924Z,61.83
2022-08-07T22:26:59.288Z,62.52
2022-08-07T22:29:47.521Z,61.78
2022-08-07T22:32:08.264Z,62.52
2022-08-07T22:34:36.068Z,62.23
2022-08-07T22:37:05.137Z,62.19
2022-08-07T22:39:30.103Z,62.25
2022-08-07T22:42:19.401Z,62.03
2022-08-07T22:44:22.052Z,60.08
2022-08-07T22:47:02.697Z,61.28
2022-08-07T22:49:16.475Z,63.28
2022-08-07T22:51:37.022Z,63.70
2022-08-07T22:54:09.438Z,61.57
2022-08-07T22:56:23.995Z,64.02
2022-08-07T22:59:10.727Z,64.13
2022-08-07T23:01:59.127Z,63.97
2022-08-07T23:04:28.913Z,64.15
2022-08-07T23:07:40.207Z,64.89
2022-08-07T23:10:38.226Z,65.15
2022-08-07T23:12:48.887Z,65.06
2022-08-07T23:16:04.268Z,64.00
2022-08-07T23:17:47.626Z,64.04
2022-08-07T23:20:52.420Z,65.08
2022-08-07T23:24:06.625Z,65.50
2022-08-07T23:26:12.390Z,64.58
2022-08-07T23:28:32.713Z,65.00
2022-08-07T23:31:06.461Z,65.73
2022-08-07T23:34:35.094Z,66.22
2022-08-07T23:36:29.006Z,66.63
2022-08-07T23:39:21.999Z,66.14
2022-08-07T23:41:47.432Z,66.38
2022-08-07T23:44:03.848Z,64.84
2022-08-07T23:46:42.975Z,67.27
2022-08-07T23:49:18.257Z,66.88
2022-08-07T23:52:59.616Z,65.49
2022-08-07T23:53:54.827Z,66.01
2022-08-07T23:56:01.558Z,65.88
2022-08-07T23:58:26.409Z,67.50
